Time;durP1;ratioP1;P1;durP2;ratioP2;P2;SDS_P1;SDS_P2;PMS_P1;PMS_P2;Temp;Humidity;BMP_temperature;BMP_pressure;BME280_temperature;BME280_humidity;BME280_pressure;Samples;Min_cycle;Max_cycle;Signal;HPM_P1;HPM_P2
2021/11/21 00:01:00;;;;;;;48.05;24.20;;;6.60;99.90;;;;;;5065395;28;20064;-57
2021/11/21 00:03:26;;;;;;;48.90;25.08;;;6.50;99.90;;;;;;5068205;28;20074;-59
2021/11/21 00:05:53;;;;;;;51.20;24.95;;;6.50;99.90;;;;;;5086722;28;20049;-55
2021/11/21 00:08:18;;;;;;;51.17;26.05;;;6.50;99.90;;;;;;5092118;28;20381;-58
2021/11/21 00:10:44;;;;;;;57.22;26.08;;;6.50;99.90;;;;;;5089916;28;20028;-56
2021/11/21 00:13:11;;;;;;;52.03;25.63;;;6.60;99.90;;;;;;5091732;28;20036;-58
2021/11/21 00:15:41;;;;;;;59.65;25.58;;;6.60;99.90;;;;;;5089891;28;20496;-57
2021/11/21 00:18:08;;;;;;;62.65;27.92;;;6.60;99.90;;;;;;5092895;28;20107;-58
2021/11/21 00:20:34;;;;;;;48.50;26.98;;;6.60;99.90;;;;;;5088525;28;20035;-55
2021/11/21 00:23:00;;;;;;;50.00;25.55;;;6.60;99.90;;;;;;5090155;28;20276;-58
2021/11/21 00:25:26;;;;;;;63.05;30.05;;;6.60;99.90;;;;;;5089914;28;20460;-56
2021/11/21 00:27:52;;;;;;;54.50;26.98;;;6.50;99.90;;;;;;5077267;28;20100;-56
2021/11/21 00:30:19;;;;;;;70.90;30.33;;;6.50;99.90;;;;;;5084138;28;20039;-55
2021/11/21 00:32:46;;;;;;;55.10;27.40;;;6.50;99.90;;;;;;5085258;28;20513;-56
2021/11/21 00:35:12;;;;;;;69.20;27.30;;;6.50;99.90;;;;;;5088384;28;20032;-54
2021/11/21 00:37:38;;;;;;;75.68;30.02;;;6.50;99.90;;;;;;5091276;28;20439;-56
2021/11/21 00:40:06;;;;;;;62.95;30.17;;;6.40;99.90;;;;;;5089900;28;20085;-57
2021/11/21 00:42:32;;;;;;;75.68;31.08;;;6.50;99.90;;;;;;5090454;28;20042;-58
2021/11/21 00:44:58;;;;;;;65.50;29.75;;;6.50;99.90;;;;;;5088829;28;20055;-57
2021/11/21 00:47:23;;;;;;;60.15;28.70;;;6.50;99.90;;;;;;5088693;28;20052;-55
2021/11/21 00:49:49;;;;;;;59.70;30.23;;;6.40;99.90;;;;;;5090306;28;20615;-57
2021/11/21 00:52:15;;;;;;;65.05;30.25;;;6.50;99.90;;;;;;5091280;28;20028;-56
2021/11/21 00:55:32;;;;;;;51.28;28.05;;;6.50;99.90;;;;;;5081851;28;20059;-57
2021/11/21 00:57:30;;;;;;;64.65;31.17;;;6.60;99.90;;;;;;5072320;28;20069;-58
2021/11/21 00:59:55;;;;;;;67.65;31.77;;;6.60;99.90;;;;;;5089615;28;20032;-58
2021/11/21 01:02:23;;;;;;;61.97;31.92;;;6.60;99.90;;;;;;5055185;28;20066;-55
2021/11/21 01:04:49;;;;;;;66.05;30.35;;;6.60;99.90;;;;;;5085825;28;20073;-59
2021/11/21 01:07:14;;;;;;;70.55;31.17;;;6.60;99.90;;;;;;5090952;28;20028;-58
2021/11/21 01:09:40;;;;;;;59.50;29.75;;;6.60;99.90;;;;;;5079785;28;20074;-59
2021/11/21 01:12:08;;;;;;;67.40;31.20;;;6.60;99.90;;;;;;5091226;28;20020;-58
2021/11/21 01:14:34;;;;;;;84.55;33.35;;;6.70;99.90;;;;;;5089383;28;20031;-58
2021/11/21 01:16:59;;;;;;;69.85;33.17;;;6.70;99.90;;;;;;5091192;28;20513;-56
2021/11/21 01:19:25;;;;;;;62.95;30.70;;;6.70;99.90;;;;;;5089463;28;20035;-56
2021/11/21 01:21:51;;;;;;;59.05;29.15;;;6.70;99.90;;;;;;5062041;28;20032;-59
2021/11/21 01:24:16;;;;;;;65.35;32.15;;;6.70;99.90;;;;;;5082609;28;20540;-56
2021/11/21 01:26:43;;;;;;;55.45;30.27;;;6.70;99.90;;;;;;5086290;28;20020;-59
2021/11/21 01:29:09;;;;;;;64.70;30.83;;;6.70;99.90;;;;;;5090465;28;20028;-59
2021/11/21 01:31:35;;;;;;;64.15;31.17;;;6.70;99.90;;;;;;5089439;28;20024;-57
2021/11/21 01:34:00;;;;;;;63.90;31.08;;;6.70;99.90;;;;;;5089977;28;20444;-56
2021/11/21 01:36:26;;;;;;;71.25;32.20;;;6.70;99.90;;;;;;5089036;28;20024;-57
2021/11/21 01:38:51;;;;;;;64.15;31.60;;;6.70;99.90;;;;;;5090595;28;20149;-59
2021/11/21 01:41:17;;;;;;;64.03;32.40;;;6.70;99.90;;;;;;5089093;28;20039;-59
2021/11/21 01:43:43;;;;;;;60.70;30.15;;;6.70;99.90;;;;;;5087493;28;20039;-58
2021/11/21 01:46:09;;;;;;;68.60;30.85;;;6.70;99.90;;;;;;5089139;28;20069;-57
2021/11/21 01:48:35;;;;;;;64.75;32.15;;;6.80;99.90;;;;;;5090944;28;20020;-59
2021/11/21 01:51:09;;;;;;;67.30;31.38;;;6.70;99.90;;;;;;5087099;28;20024;-58
2021/11/21 01:53:35;;;;;;;65.95;32.72;;;6.70;99.90;;;;;;5090599;28;20064;-58
2021/11/21 01:56:02;;;;;;;64.43;31.10;;;6.70;99.90;;;;;;5089243;28;20024;-60
2021/11/21 01:58:28;;;;;;;64.57;30.92;;;6.70;99.90;;;;;;5090314;28;20043;-58
2021/11/21 02:00:54;;;;;;;69.40;32.25;;;6.70;99.90;;;;;;5069077;28;20060;-57
2021/11/21 02:03:20;;;;;;;60.47;31.20;;;6.70;99.90;;;;;;5083524;28;20040;-57
2021/11/21 02:05:47;;;;;;;63.35;31.98;;;6.70;99.90;;;;;;5085035;28;20099;-58
2021/11/21 02:08:13;;;;;;;67.25;29.95;;;6.70;99.90;;;;;;5090738;28;20051;-57
2021/11/21 02:10:40;;;;;;;58.22;30.60;;;6.70;99.90;;;;;;5086087;28;20106;-57
2021/11/21 02:13:07;;;;;;;60.75;29.85;;;6.70;99.90;;;;;;5090041;28;20654;-55
2021/11/21 02:15:34;;;;;;;59.35;29.15;;;6.80;99.90;;;;;;5089115;28;20032;-58
2021/11/21 02:18:00;;;;;;;59.97;30.77;;;6.70;99.90;;;;;;5090556;28;20669;-57
2021/11/21 02:20:48;;;;;;;59.63;29.98;;;6.70;99.90;;;;;;5086934;28;20027;-58
2021/11/21 02:23:14;;;;;;;59.42;30.02;;;6.70;99.90;;;;;;5075981;28;20550;-56
2021/11/21 02:25:40;;;;;;;61.47;29.48;;;6.70;99.90;;;;;;5078468;28;20043;-57
2021/11/21 02:28:07;;;;;;;57.92;30.85;;;6.70;99.90;;;;;;5087028;28;20477;-57
2021/11/21 02:30:33;;;;;;;71.13;30.80;;;6.70;99.90;;;;;;5089649;28;20045;-58
2021/11/21 02:32:58;;;;;;;58.03;30.13;;;6.70;99.90;;;;;;5089860;28;20028;-56
2021/11/21 02:35:24;;;;;;;57.75;28.02;;;6.70;99.90;;;;;;5087837;28;20439;-58
2021/11/21 02:37:51;;;;;;;72.47;32.78;;;6.70;99.90;;;;;;5082286;28;20028;-58
2021/11/21 02:40:17;;;;;;;60.25;29.60;;;6.70;99.90;;;;;;5085953;28;20020;-57
2021/11/21 02:42:44;;;;;;;63.03;28.73;;;6.70;99.90;;;;;;5087857;28;20028;-60
2021/11/21 02:45:16;;;;;;;56.40;29.17;;;6.70;99.90;;;;;;5088002;28;20036;-59
2021/11/21 02:47:42;;;;;;;55.15;27.20;;;6.70;99.90;;;;;;5081976;28;20122;-57
2021/11/21 02:50:23;;;;;;;50.15;27.52;;;6.80;99.90;;;;;;5083767;28;20130;-60
2021/11/21 02:52:50;;;;;;;56.78;28.33;;;6.80;99.90;;;;;;5084346;28;20039;-59
2021/11/21 02:55:17;;;;;;;55.30;27.90;;;6.80;99.90;;;;;;5081087;28;20027;-58
2021/11/21 02:57:44;;;;;;;58.20;28.23;;;6.80;99.90;;;;;;5083200;28;20047;-56
2021/11/21 03:00:14;;;;;;;61.78;27.85;;;6.80;99.90;;;;;;5083706;28;20425;-57
2021/11/21 03:02:42;;;;;;;52.28;28.02;;;6.80;99.90;;;;;;5066303;28;20119;-58
2021/11/21 03:05:08;;;;;;;50.90;27.02;;;6.80;99.90;;;;;;5087789;28;20454;-58
2021/11/21 03:07:34;;;;;;;52.45;28.33;;;6.80;99.90;;;;;;5080718;28;20031;-55
2021/11/21 03:09:59;;;;;;;55.08;27.58;;;6.80;99.90;;;;;;5083240;28;20031;-54
2021/11/21 03:12:25;;;;;;;55.13;27.83;;;6.80;99.90;;;;;;5075495;28;20074;-57
2021/11/21 03:14:52;;;;;;;52.15;28.23;;;6.80;99.90;;;;;;5079877;28;20035;-56
2021/11/21 03:17:20;;;;;;;51.67;28.08;;;6.80;99.90;;;;;;5080103;28;20047;-55
2021/11/21 03:19:46;;;;;;;58.30;28.80;;;6.80;99.90;;;;;;5082557;28;20485;-58
2021/11/21 03:22:12;;;;;;;52.08;27.23;;;6.80;99.90;;;;;;5082113;28;20127;-59
2021/11/21 03:24:38;;;;;;;58.47;29.48;;;6.80;99.90;;;;;;5087363;28;20036;-54
2021/11/21 03:27:04;;;;;;;57.40;28.35;;;6.80;99.90;;;;;;5089814;28;20027;-56
2021/11/21 03:29:30;;;;;;;53.70;27.38;;;6.80;99.90;;;;;;5087009;28;20560;-57
2021/11/21 03:31:56;;;;;;;62.75;28.75;;;6.80;99.90;;;;;;5078140;28;20020;-56
2021/11/21 03:34:21;;;;;;;58.65;28.33;;;6.80;99.90;;;;;;5080936;28;20056;-58
2021/11/21 03:36:47;;;;;;;62.33;27.75;;;6.70;99.90;;;;;;5092871;28;20028;-59
2021/11/21 03:39:13;;;;;;;57.22;28.95;;;6.80;99.90;;;;;;5092650;28;20035;-56
2021/11/21 03:41:39;;;;;;;55.88;29.02;;;6.70;99.90;;;;;;5092518;28;20085;-59
2021/11/21 03:44:07;;;;;;;60.28;30.10;;;6.80;99.90;;;;;;5092162;28;20032;-57
2021/11/21 03:46:34;;;;;;;54.30;28.88;;;6.80;99.90;;;;;;5091138;28;20031;-57
2021/11/21 03:48:59;;;;;;;53.10;26.48;;;6.80;99.90;;;;;;5092686;28;20019;-57
2021/11/21 03:51:25;;;;;;;53.83;28.13;;;6.80;99.90;;;;;;5090862;28;20027;-58
2021/11/21 03:53:51;;;;;;;50.47;26.58;;;6.80;99.90;;;;;;5091927;28;20020;-57
2021/11/21 03:56:18;;;;;;;56.75;30.05;;;6.80;99.90;;;;;;5092989;28;20028;-56
2021/11/21 03:58:44;;;;;;;52.50;27.45;;;6.80;99.90;;;;;;5091083;28;20358;-59
2021/11/21 04:01:10;;;;;;;52.83;26.05;;;6.80;99.90;;;;;;5072049;28;20047;-56
2021/11/21 04:03:36;;;;;;;62.03;27.27;;;6.80;99.90;;;;;;5086297;28;20036;-57
2021/11/21 04:06:01;;;;;;;55.15;28.02;;;6.80;99.90;;;;;;5089985;28;20024;-59
2021/11/21 04:08:27;;;;;;;47.88;24.95;;;6.80;99.90;;;;;;5092447;28;20020;-57
2021/11/21 04:10:54;;;;;;;56.85;27.98;;;6.80;99.90;;;;;;5091840;28;20608;-58
2021/11/21 04:13:20;;;;;;;54.08;25.95;;;6.80;99.90;;;;;;5091133;28;20035;-56
2021/11/21 04:15:45;;;;;;;52.70;25.58;;;6.70;99.90;;;;;;5091497;28;20081;-58
2021/11/21 04:18:11;;;;;;;48.00;24.63;;;6.80;99.90;;;;;;5092125;28;20102;-58
2021/11/21 04:20:37;;;;;;;47.20;24.50;;;6.80;99.90;;;;;;5091792;28;21486;-55
2021/11/21 04:23:03;;;;;;;50.97;24.88;;;6.80;99.90;;;;;;5089183;28;20114;-57
2021/11/21 04:25:28;;;;;;;52.38;26.73;;;6.80;99.90;;;;;;5084007;28;20528;-57
2021/11/21 04:27:54;;;;;;;48.92;24.17;;;6.80;99.90;;;;;;5079548;28;20630;-56
2021/11/21 04:30:20;;;;;;;50.50;24.63;;;6.80;99.90;;;;;;5090872;28;20020;-57
2021/11/21 04:32:47;;;;;;;55.17;25.42;;;6.70;99.90;;;;;;5090168;28;20013;-59
2021/11/21 04:35:16;;;;;;;51.92;25.02;;;6.70;99.90;;;;;;5089951;28;20085;-57
2021/11/21 04:37:41;;;;;;;46.42;23.98;;;6.70;99.90;;;;;;5073752;28;20032;-56
2021/11/21 04:40:10;;;;;;;55.40;25.60;;;6.80;99.90;;;;;;5087911;28;20028;-60
2021/11/21 04:42:36;;;;;;;47.97;25.02;;;6.80;99.90;;;;;;5086880;28;20454;-57
2021/11/21 04:45:03;;;;;;;54.00;25.38;;;6.80;99.90;;;;;;5067058;28;20062;-57
2021/11/21 04:47:29;;;;;;;47.70;25.45;;;6.80;99.90;;;;;;5084393;28;20493;-57
2021/11/21 04:49:55;;;;;;;59.67;25.42;;;6.80;99.90;;;;;;5081564;28;20072;-55
2021/11/21 04:52:20;;;;;;;51.90;25.77;;;6.80;99.90;;;;;;5084940;28;20040;-59
2021/11/21 04:54:46;;;;;;;51.95;26.52;;;6.80;99.90;;;;;;5091160;28;20110;-52
2021/11/21 04:57:11;;;;;;;51.50;26.83;;;6.90;99.90;;;;;;5091398;28;20031;-56
2021/11/21 04:59:37;;;;;;;50.72;25.95;;;6.90;99.90;;;;;;5091341;28;20489;-55
2021/11/21 05:02:04;;;;;;;59.65;26.48;;;6.90;99.90;;;;;;5073541;28;20513;-57
2021/11/21 05:04:30;;;;;;;53.92;26.17;;;6.90;99.90;;;;;;5046653;28;20159;-59
2021/11/21 05:06:56;;;;;;;54.45;26.40;;;6.90;99.90;;;;;;5078906;28;20029;-58
2021/11/21 05:09:21;;;;;;;51.33;23.83;;;6.90;99.90;;;;;;5081040;28;20031;-58
2021/11/21 05:11:47;;;;;;;58.75;26.33;;;6.90;99.90;;;;;;5085228;28;20021;-59
2021/11/21 05:14:16;;;;;;;52.05;24.88;;;6.90;99.90;;;;;;5082153;28;20029;-57
2021/11/21 05:16:42;;;;;;;56.53;26.33;;;6.90;99.90;;;;;;5091451;28;20020;-57
2021/11/21 05:19:08;;;;;;;49.70;25.42;;;6.90;99.90;;;;;;5090963;28;20035;-58
2021/11/21 05:21:33;;;;;;;54.58;26.50;;;6.90;99.90;;;;;;5090844;28;20071;-60
2021/11/21 05:24:01;;;;;;;54.88;26.55;;;6.90;99.90;;;;;;5091098;28;20023;-58
2021/11/21 05:26:27;;;;;;;60.17;26.25;;;6.90;99.90;;;;;;5088451;28;20077;-58
2021/11/21 05:28:53;;;;;;;64.43;28.33;;;6.90;99.90;;;;;;5088568;28;20035;-58
2021/11/21 05:31:19;;;;;;;57.58;28.33;;;6.90;99.90;;;;;;5090480;28;20032;-59
2021/11/21 05:33:44;;;;;;;60.65;28.52;;;7.00;99.90;;;;;;5086660;28;20028;-59
2021/11/21 05:36:10;;;;;;;53.15;26.33;;;6.90;99.90;;;;;;5088232;28;20416;-60
2021/11/21 05:38:36;;;;;;;58.58;25.92;;;7.00;99.90;;;;;;5090727;28;20104;-57
2021/11/21 05:41:01;;;;;;;64.05;26.67;;;7.00;99.90;;;;;;5086027;28;20024;-58
2021/11/21 05:43:27;;;;;;;60.95;27.60;;;7.00;99.90;;;;;;5089640;28;20396;-58
2021/11/21 05:45:53;;;;;;;53.65;25.35;;;7.00;99.90;;;;;;5089199;28;20024;-60
2021/11/21 05:48:18;;;;;;;57.65;26.38;;;7.00;99.90;;;;;;5089956;28;20480;-60
2021/11/21 05:50:44;;;;;;;53.20;26.52;;;7.00;99.90;;;;;;5089176;28;20016;-58
2021/11/21 05:53:10;;;;;;;49.85;24.92;;;7.00;99.90;;;;;;5090381;28;20104;-57
2021/11/21 05:55:36;;;;;;;53.67;26.17;;;7.00;99.90;;;;;;5090259;28;20582;-58
2021/11/21 05:58:01;;;;;;;56.47;25.90;;;7.00;99.90;;;;;;5089787;28;20017;-58
2021/11/21 06:00:28;;;;;;;47.22;24.02;;;7.00;99.90;;;;;;5090437;28;20024;-56
2021/11/21 06:02:55;;;;;;;44.83;22.85;;;7.00;99.90;;;;;;5070755;28;20189;-58
2021/11/21 06:05:21;;;;;;;43.92;23.38;;;7.00;99.90;;;;;;5083622;28;20040;-55
2021/11/21 06:07:47;;;;;;;43.10;22.45;;;7.00;99.90;;;;;;5084749;28;20393;-58
2021/11/21 06:10:14;;;;;;;49.65;23.02;;;7.00;99.90;;;;;;5080483;28;20027;-55
2021/11/21 06:12:40;;;;;;;45.67;23.00;;;7.00;99.90;;;;;;5089387;28;20134;-57
2021/11/21 06:15:08;;;;;;;43.42;22.92;;;7.00;99.90;;;;;;5088536;28;20107;-55
2021/11/21 06:17:34;;;;;;;44.95;23.38;;;7.00;99.90;;;;;;5088909;28;20026;-59
2021/11/21 06:20:07;;;;;;;47.47;22.40;;;7.00;99.90;;;;;;5064225;28;20415;-58
2021/11/21 06:22:33;;;;;;;44.17;23.20;;;7.00;99.90;;;;;;5042499;28;20018;-60
2021/11/21 06:25:00;;;;;;;46.25;23.30;;;7.00;99.90;;;;;;5044645;28;20112;-56
2021/11/21 06:27:25;;;;;;;46.70;22.80;;;7.00;99.90;;;;;;5042572;28;20111;-61
2021/11/21 06:29:51;;;;;;;50.78;22.90;;;7.00;99.90;;;;;;5046850;28;20057;-60
2021/11/21 06:32:17;;;;;;;45.00;22.23;;;7.00;99.90;;;;;;5044930;28;20029;-59
2021/11/21 06:34:43;;;;;;;46.47;22.75;;;7.00;99.90;;;;;;5045547;28;20043;-58
2021/11/21 06:37:09;;;;;;;43.50;20.60;;;7.00;99.90;;;;;;5044554;28;20437;-58
2021/11/21 06:39:38;;;;;;;54.30;31.23;;;7.00;99.90;;;;;;5043913;28;20048;-57
2021/11/21 06:42:05;;;;;;;164.05;78.53;;;7.10;99.90;;;;;;5045052;28;20371;-59
2021/11/21 06:44:31;;;;;;;507.27;231.07;;;7.00;99.90;;;;;;5039448;28;20029;-58
2021/11/21 06:46:56;;;;;;;383.60;158.48;;;7.00;99.90;;;;;;5045570;28;20029;-59
2021/11/21 06:49:23;;;;;;;530.45;233.98;;;7.00;99.90;;;;;;5043641;28;20041;-60
2021/11/21 06:51:48;;;;;;;482.48;208.95;;;7.00;99.90;;;;;;5050053;28;20060;-56
2021/11/21 06:54:14;;;;;;;347.10;155.38;;;7.00;99.90;;;;;;5048078;28;20150;-59
2021/11/21 06:56:40;;;;;;;207.85;98.68;;;7.00;99.90;;;;;;5044566;28;20028;-60
2021/11/21 06:59:06;;;;;;;53.38;25.92;;;7.00;99.90;;;;;;5050706;28;20021;-60
2021/11/21 07:01:32;;;;;;;68.65;34.97;;;7.00;99.90;;;;;;5027443;28;20068;-60
2021/11/21 07:03:57;;;;;;;50.22;28.05;;;7.10;99.90;;;;;;5016211;28;20038;-58
2021/11/21 07:06:41;;;;;;;49.22;23.50;;;7.10;99.90;;;;;;5017736;28;20404;-55
2021/11/21 07:09:09;;;;;;;51.25;28.52;;;7.00;99.90;;;;;;5021380;28;20029;-60
2021/11/21 07:11:36;;;;;;;48.25;24.02;;;7.10;99.90;;;;;;5036074;28;20419;-58
2021/11/21 07:14:01;;;;;;;71.95;33.42;;;7.00;99.90;;;;;;5028941;28;20513;-56
2021/11/21 07:16:27;;;;;;;49.08;24.83;;;7.10;99.90;;;;;;5025007;28;20057;-58
2021/11/21 07:18:53;;;;;;;62.15;27.55;;;7.10;99.90;;;;;;5036416;28;20529;-58
2021/11/21 07:21:19;;;;;;;56.30;29.60;;;7.20;99.90;;;;;;5025029;28;20030;-58
2021/11/21 07:23:45;;;;;;;58.13;28.65;;;7.10;99.90;;;;;;5029114;28;20100;-59
2021/11/21 07:26:11;;;;;;;59.22;30.50;;;7.10;99.90;;;;;;5032430;28;20032;-58
2021/11/21 07:28:37;;;;;;;58.75;27.92;;;7.10;99.90;;;;;;5026262;28;20069;-58
2021/11/21 07:31:04;;;;;;;46.88;24.63;;;7.10;99.90;;;;;;5004103;28;20038;-58
2021/11/21 07:33:30;;;;;;;54.47;26.50;;;7.10;99.90;;;;;;5006544;28;20030;-57
2021/11/21 07:35:56;;;;;;;55.88;28.20;;;7.10;99.90;;;;;;5013218;28;20044;-58
2021/11/21 07:38:22;;;;;;;61.28;28.33;;;7.10;99.90;;;;;;5010319;28;20504;-55
2021/11/21 07:40:49;;;;;;;56.47;28.05;;;7.20;99.90;;;;;;5001860;28;20058;-57
2021/11/21 07:43:15;;;;;;;89.63;49.92;;;7.10;99.90;;;;;;5008817;28;20045;-58
2021/11/21 07:45:40;;;;;;;45.35;24.88;;;7.20;99.90;;;;;;5002593;28;20389;-54
2021/11/21 07:48:07;;;;;;;48.20;26.83;;;7.20;99.90;;;;;;5002502;28;20038;-56
2021/11/21 07:50:34;;;;;;;44.58;24.27;;;7.20;99.90;;;;;;4999799;28;20046;-60
2021/11/21 07:52:59;;;;;;;41.20;21.67;;;7.10;99.90;;;;;;4997297;28;20128;-59
2021/11/21 07:55:25;;;;;;;38.05;20.63;;;7.20;99.90;;;;;;5001900;28;20109;-61
2021/11/21 07:57:50;;;;;;;39.22;21.25;;;7.20;99.90;;;;;;4999466;28;20044;-57
2021/11/21 08:00:16;;;;;;;74.13;36.28;;;7.20;99.90;;;;;;4996347;28;20042;-60
2021/11/21 08:02:43;;;;;;;66.68;29.85;;;7.20;99.90;;;;;;4986113;28;20085;-57
2021/11/21 08:05:09;;;;;;;72.70;34.90;;;7.20;99.90;;;;;;4997935;28;20034;-56
2021/11/21 08:07:35;;;;;;;61.88;30.05;;;7.20;99.90;;;;;;5011815;28;20049;-59
2021/11/21 08:10:02;;;;;;;72.72;37.67;;;7.20;99.90;;;;;;5000517;28;20071;-55
2021/11/21 08:12:28;;;;;;;119.43;57.35;;;7.20;99.90;;;;;;4994091;28;20486;-59
2021/11/21 08:14:53;;;;;;;60.45;31.88;;;7.30;99.90;;;;;;4994068;28;20022;-55
2021/11/21 08:17:19;;;;;;;56.40;28.33;;;7.20;99.90;;;;;;4993745;28;20446;-57
2021/11/21 08:19:45;;;;;;;48.25;24.50;;;7.30;99.90;;;;;;4995127;28;20056;-59
2021/11/21 08:22:12;;;;;;;53.28;26.98;;;7.30;99.90;;;;;;4996376;28;20030;-59
2021/11/21 08:24:37;;;;;;;48.28;25.02;;;7.20;99.90;;;;;;4995077;28;20022;-54
2021/11/21 08:27:04;;;;;;;46.78;23.63;;;7.20;99.90;;;;;;5008319;28;20137;-58
2021/11/21 08:29:29;;;;;;;43.33;23.40;;;7.20;99.90;;;;;;5011794;28;20038;-57
2021/11/21 08:31:56;;;;;;;43.97;24.85;;;7.30;99.90;;;;;;5013318;28;20056;-59
2021/11/21 08:34:22;;;;;;;47.33;25.38;;;7.30;99.90;;;;;;5001686;28;20034;-60
2021/11/21 08:36:49;;;;;;;42.00;23.85;;;7.30;99.90;;;;;;5005284;28;20029;-59
2021/11/21 08:39:16;;;;;;;40.45;23.20;;;7.30;99.90;;;;;;4998360;28;20238;-58
2021/11/21 08:41:43;;;;;;;38.03;21.08;;;7.30;99.90;;;;;;4998787;28;20100;-58
2021/11/21 08:44:08;;;;;;;44.70;23.83;;;7.30;99.90;;;;;;5007914;28;20048;-57
2021/11/21 08:46:35;;;;;;;40.72;21.75;;;7.30;99.90;;;;;;5008936;28;20371;-55
2021/11/21 08:49:01;;;;;;;41.58;21.45;;;7.30;99.90;;;;;;5011198;28;20053;-58
2021/11/21 08:51:26;;;;;;;36.72;19.95;;;7.30;99.90;;;;;;4999091;28;20030;-56
2021/11/21 08:53:52;;;;;;;38.55;22.15;;;7.30;99.90;;;;;;4996916;28;20403;-58
2021/11/21 08:56:18;;;;;;;37.03;19.58;;;7.30;99.90;;;;;;4996551;28;20034;-57
2021/11/21 08:58:44;;;;;;;36.65;19.40;;;7.30;99.90;;;;;;5002227;28;20030;-59
2021/11/21 09:01:10;;;;;;;32.50;19.63;;;7.40;99.90;;;;;;5008650;28;20031;-58
2021/11/21 09:03:36;;;;;;;32.97;17.83;;;7.50;99.90;;;;;;4985013;28;20050;-58
2021/11/21 09:06:02;;;;;;;32.88;18.73;;;7.50;99.90;;;;;;5007303;28;20537;-57
2021/11/21 09:08:30;;;;;;;32.47;18.63;;;7.50;99.90;;;;;;5012532;28;20091;-57
2021/11/21 09:10:56;;;;;;;30.88;17.83;;;7.50;99.90;;;;;;5007494;28;20096;-58
2021/11/21 09:13:21;;;;;;;33.45;16.52;;;7.50;99.90;;;;;;5009438;28;20483;-57
2021/11/21 09:15:47;;;;;;;34.67;19.20;;;7.60;99.90;;;;;;5006187;28;20039;-58
2021/11/21 09:18:14;;;;;;;33.20;17.70;;;7.50;99.90;;;;;;5011530;28;20475;-58
2021/11/21 09:20:40;;;;;;;40.33;21.77;;;7.50;99.90;;;;;;5011229;28;20483;-59
2021/11/21 09:23:11;;;;;;;36.05;22.25;;;7.50;99.90;;;;;;5010190;28;20083;-61
2021/11/21 09:25:38;;;;;;;34.20;20.00;;;7.50;99.90;;;;;;5012560;28;20412;-57
2021/11/21 09:28:04;;;;;;;36.78;21.50;;;7.60;99.90;;;;;;5016712;28;20033;-59
2021/11/21 09:30:30;;;;;;;23.25;14.48;;;7.60;99.90;;;;;;5006169;28;20160;-56
2021/11/21 09:32:55;;;;;;;36.17;21.05;;;7.60;99.90;;;;;;5001795;28;20113;-58
2021/11/21 09:35:22;;;;;;;38.15;22.95;;;7.70;99.90;;;;;;5008827;28;20021;-56
2021/11/21 09:37:49;;;;;;;48.53;28.27;;;7.80;99.90;;;;;;5003507;28;20030;-58
2021/11/21 09:40:15;;;;;;;24.60;16.33;;;7.90;99.90;;;;;;5007747;28;20029;-59
2021/11/21 09:42:42;;;;;;;18.23;12.55;;;7.90;99.90;;;;;;5007029;28;20401;-55
2021/11/21 09:45:09;;;;;;;28.63;16.92;;;8.00;99.90;;;;;;5013743;28;20026;-54
2021/11/21 09:47:36;;;;;;;42.67;27.85;;;8.10;99.90;;;;;;5012001;28;20040;-58
2021/11/21 09:50:08;;;;;;;33.47;20.10;;;8.10;99.90;;;;;;4999168;28;20467;-57
2021/11/21 09:52:33;;;;;;;57.15;33.47;;;8.20;99.90;;;;;;5012439;28;20038;-55
2021/11/21 09:54:59;;;;;;;46.33;28.83;;;8.20;99.90;;;;;;5014514;28;20099;-59
2021/11/21 09:57:25;;;;;;;40.83;23.85;;;8.20;99.90;;;;;;5008506;28;20034;-58
2021/11/21 09:59:56;;;;;;;52.20;23.70;;;8.20;99.90;;;;;;5014407;28;20048;-56
2021/11/21 10:02:46;;;;;;;39.50;21.00;;;8.20;99.90;;;;;;4999785;28;20136;-58
2021/11/21 10:05:25;;;;;;;28.05;16.17;;;8.20;99.90;;;;;;5010915;28;20058;-58
2021/11/21 10:08:11;;;;;;;33.40;22.60;;;8.10;99.90;;;;;;5020870;28;20124;-58
2021/11/21 10:10:50;;;;;;;24.67;17.13;;;8.10;99.90;;;;;;5016801;28;20021;-55
2021/11/21 10:13:29;;;;;;;19.23;13.05;;;8.10;99.90;;;;;;5013809;28;20049;-59
2021/11/21 10:15:56;;;;;;;37.58;22.90;;;8.10;99.90;;;;;;5004134;28;20025;-57
2021/11/21 10:18:22;;;;;;;31.58;20.27;;;8.10;99.90;;;;;;5010469;28;20026;-54
2021/11/21 10:20:48;;;;;;;18.95;12.20;;;8.10;99.90;;;;;;5019217;28;20513;-56
2021/11/21 10:23:13;;;;;;;20.48;13.18;;;8.10;99.90;;;;;;5013041;28;20603;-60
2021/11/21 10:25:42;;;;;;;22.75;14.30;;;8.20;99.90;;;;;;5015724;28;20054;-59
2021/11/21 10:28:27;;;;;;;17.42;12.10;;;8.10;99.90;;;;;;5001612;28;20029;-57
2021/11/21 10:31:18;;;;;;;12.27;8.57;;;8.10;99.90;;;;;;4998020;28;20091;-57
2021/11/21 10:33:56;;;;;;;13.27;8.45;;;8.10;99.90;;;;;;5003777;28;20038;-58
2021/11/21 10:36:24;;;;;;;13.10;7.97;;;8.20;99.90;;;;;;4992775;28;20048;-57
2021/11/21 10:38:54;;;;;;;11.00;7.63;;;8.30;99.90;;;;;;4990595;28;20399;-57
2021/11/21 10:41:25;;;;;;;12.35;8.25;;;8.20;99.90;;;;;;5008135;28;20116;-60
2021/11/21 10:43:58;;;;;;;15.73;8.85;;;8.30;99.90;;;;;;5010492;28;20078;-56
2021/11/21 10:46:34;;;;;;;17.10;11.23;;;8.30;99.90;;;;;;5010874;28;20025;-58
2021/11/21 10:49:19;;;;;;;14.90;9.85;;;8.40;99.90;;;;;;5020407;28;20099;-56
2021/11/21 10:51:46;;;;;;;13.65;9.75;;;8.30;99.90;;;;;;5008688;28;20036;-58
2021/11/21 10:54:24;;;;;;;13.70;10.20;;;8.30;99.90;;;;;;5016986;28;20043;-59
2021/11/21 10:56:56;;;;;;;17.67;11.52;;;8.40;99.90;;;;;;5003949;28;20029;-58
2021/11/21 11:00:02;;;;;;;18.20;10.82;;;8.40;99.90;;;;;;5014675;28;20033;-57
2021/11/21 11:02:37;;;;;;;17.58;10.95;;;8.40;99.90;;;;;;4991828;28;20402;-56
2021/11/21 11:05:05;;;;;;;20.83;12.32;;;8.40;99.90;;;;;;5012064;28;20038;-59
2021/11/21 11:07:35;;;;;;;17.90;12.55;;;8.40;99.90;;;;;;5002205;28;20538;-58
2021/11/21 11:10:05;;;;;;;18.80;12.10;;;8.40;99.90;;;;;;5018297;28;20483;-60
2021/11/21 11:12:30;;;;;;;15.55;11.15;;;8.50;99.90;;;;;;5012663;28;20124;-58
2021/11/21 11:14:57;;;;;;;15.85;11.15;;;8.50;99.90;;;;;;5023320;28;20109;-55
2021/11/21 11:17:26;;;;;;;21.30;12.15;;;8.50;99.90;;;;;;5005249;28;20069;-58
2021/11/21 11:19:57;;;;;;;17.63;12.20;;;8.60;99.90;;;;;;5011616;28;20037;-57
2021/11/21 11:22:23;;;;;;;16.45;10.88;;;8.50;99.90;;;;;;4997072;28;20022;-58
2021/11/21 11:24:49;;;;;;;19.00;12.63;;;8.60;99.90;;;;;;5000776;28;20026;-57
2021/11/21 11:27:48;;;;;;;16.75;11.82;;;8.60;99.90;;;;;;5008667;28;20022;-59
2021/11/21 11:30:15;;;;;;;14.02;10.07;;;8.70;99.90;;;;;;4998876;28;20064;-58
2021/11/21 11:32:43;;;;;;;15.90;10.70;;;8.80;99.90;;;;;;5002755;28;20026;-57
2021/11/21 11:35:17;;;;;;;17.20;11.98;;;8.80;99.90;;;;;;5001980;28;20027;-58
2021/11/21 11:37:53;;;;;;;17.35;11.32;;;8.90;99.90;;;;;;5000896;28;20125;-60
2021/11/21 11:40:27;;;;;;;16.77;11.98;;;9.00;99.90;;;;;;5004628;28;20253;-59
2021/11/21 11:42:59;;;;;;;19.67;12.90;;;8.90;99.90;;;;;;5007001;28;20030;-60
2021/11/21 11:45:44;;;;;;;19.10;12.95;;;9.00;99.90;;;;;;5005996;28;20152;-60
2021/11/21 11:48:35;;;;;;;18.40;11.82;;;9.00;99.90;;;;;;5008459;28;20030;-59
2021/11/21 11:51:10;;;;;;;18.55;12.52;;;9.10;99.90;;;;;;5008670;28;20017;-60
2021/11/21 11:53:44;;;;;;;18.85;13.50;;;9.10;99.90;;;;;;5004894;28;20022;-60
2021/11/21 11:56:21;;;;;;;20.17;13.57;;;9.10;99.90;;;;;;4996843;28;20019;-56
2021/11/21 11:59:05;;;;;;;22.20;13.80;;;9.00;99.90;;;;;;5002741;28;20100;-59
2021/11/21 12:01:39;;;;;;;20.70;14.27;;;9.00;99.90;;;;;;5000075;28;20117;-58
2021/11/21 12:04:28;;;;;;;19.35;14.15;;;9.00;99.90;;;;;;4989289;28;20042;-57
2021/11/21 12:06:59;;;;;;;18.83;13.90;;;9.00;99.90;;;;;;5000566;28;20089;-60
2021/11/21 12:09:26;;;;;;;24.83;14.43;;;8.90;99.90;;;;;;5002270;28;20416;-58
2021/11/21 12:12:01;;;;;;;22.48;14.35;;;8.90;99.90;;;;;;5005671;28;20034;-60
2021/11/21 12:14:28;;;;;;;24.90;15.20;;;8.80;99.90;;;;;;5006127;28;20565;-58
2021/11/21 12:16:55;;;;;;;19.92;13.52;;;8.80;99.90;;;;;;5007241;28;20022;-57
2021/11/21 12:19:40;;;;;;;22.02;15.18;;;8.80;99.90;;;;;;5000623;28;20037;-60
2021/11/21 12:22:36;;;;;;;20.08;14.68;;;8.80;99.90;;;;;;5010103;28;20105;-54
2021/11/21 12:25:24;;;;;;;24.20;15.30;;;8.80;99.90;;;;;;5002533;28;20516;-57
2021/11/21 12:27:58;;;;;;;27.48;14.95;;;8.70;99.90;;;;;;5002904;28;20125;-60
2021/11/21 12:30:33;;;;;;;24.35;16.35;;;8.60;99.90;;;;;;4999984;28;20041;-59
2021/11/21 12:33:05;;;;;;;27.92;16.80;;;8.60;99.90;;;;;;5002523;28;20030;-56
2021/11/21 12:35:36;;;;;;;26.58;17.38;;;8.70;99.90;;;;;;5003182;28;20432;-59
2021/11/21 12:38:21;;;;;;;24.70;16.77;;;8.60;99.90;;;;;;5000755;28;20134;-54
2021/11/21 12:40:51;;;;;;;30.27;18.10;;;8.70;99.90;;;;;;4990168;28;20026;-57